Time;durP1;ratioP1;P1;durP2;ratioP2;P2;SDS_P1;SDS_P2;PMS_P1;PMS_P2;Temp;Humidity;BMP_temperature;BMP_pressure;BME280_temperature;BME280_humidity;BME280_pressure;Samples;Min_cycle;Max_cycle;Signal;HPM_P1;HPM_P2
2022/07/12 00:03:13;;;;;;;;;;;;;;;;;;10378305;28;19926;-66
2022/07/12 00:08:16;;;;;;;;;;;;;;;;;;10378683;28;19925;-66
2022/07/12 00:13:18;;;;;;;;;;;;;;;;;;10377411;28;19926;-66
2022/07/12 00:18:20;;;;;;;;;;;;;;;;;;10377191;28;20399;-66
2022/07/12 00:23:22;;;;;;;;;;;;;;;;;;10377589;28;19925;-66
2022/07/12 00:28:24;;;;;;;;;;;;;;;;;;10385404;28;19925;-66
2022/07/12 00:33:26;;;;;;;;;;;;;;;;;;10417249;28;19926;-66
2022/07/12 00:38:28;;;;;;;;;;;;;;;;;;10394232;28;19932;-66
2022/07/12 00:43:30;;;;;;;;;;;;;;;;;;10376038;28;19952;-66
2022/07/12 00:48:32;;;;;;;;;;;;;;;;;;10375893;28;20369;-66
2022/07/12 00:53:36;;;;;;;;;;;;;;;;;;10375602;28;20297;-66
2022/07/12 00:58:38;;;;;;;;;;;;;;;;;;10375761;28;20288;-66
2022/07/12 01:03:40;;;;;;;;;;;;;;;;;;10376149;28;19930;-66
2022/07/12 01:08:42;;;;;;;;;;;;;;;;;;10376072;28;19933;-66
2022/07/12 01:13:44;;;;;;;;;;;;;;;;;;10375338;28;19976;-66
2022/07/12 01:18:46;;;;;;;;;;;;;;;;;;10375195;28;20403;-66
2022/07/12 01:23:49;;;;;;;;;;;;;;;;;;10375578;28;19975;-66
2022/07/12 01:28:51;;;;;;;;;;;;;;;;;;10374958;28;19925;-66
2022/07/12 01:33:53;;;;;;;;;;;;;;;;;;10406346;28;19925;-66
2022/07/12 01:38:55;;;;;;;;;;;;;;;;;;10415449;28;19925;-66
2022/07/12 01:43:57;;;;;;;;;;;;;;;;;;10415163;28;20360;-66
2022/07/12 01:48:59;;;;;;;;;;;;;;;;;;10398333;28;19930;-66
2022/07/12 01:54:02;;;;;;;;;;;;;;;;;;10374978;28;19932;-66
2022/07/12 01:59:04;;;;;;;;;;;;;;;;;;10383499;28;19925;-66
2022/07/12 02:04:06;;;;;;;;;;;;;;;;;;10420334;28;20291;-66
2022/07/12 02:09:08;;;;;;;;;;;;;;;;;;10423780;28;19925;-66
2022/07/12 02:14:12;;;;;;;;;;;;;;;;;;10423331;28;19929;-66
2022/07/12 02:19:14;;;;;;;;;;;;;;;;;;10423393;28;19932;-66
2022/07/12 02:24:16;;;;;;;;;;;;;;;;;;10421955;28;19925;-66
2022/07/12 02:29:18;;;;;;;;;;;;;;;;;;10382075;28;19926;-66
2022/07/12 02:34:20;;;;;;;;;;;;;;;;;;10381230;28;19930;-66
2022/07/12 02:39:22;;;;;;;;;;;;;;;;;;10381717;28;19930;-66
2022/07/12 02:44:24;;;;;;;;;;;;;;;;;;10380631;28;19930;-66
2022/07/12 02:49:27;;;;;;;;;;;;;;;;;;10380702;28;19947;-66
2022/07/12 02:54:29;;;;;;;;;;;;;;;;;;10399087;28;20376;-66
2022/07/12 02:59:31;;;;;;;;;;;;;;;;;;10421852;28;19936;-66
2022/07/12 03:04:33;;;;;;;;;;;;;;;;;;10421036;28;19925;-66
2022/07/12 03:09:35;;;;;;;;;;;;;;;;;;10421608;28;19926;-65
2022/07/12 03:14:37;;;;;;;;;;;;;;;;;;10420238;28;19925;-66
2022/07/12 03:19:39;;;;;;;;;;;;;;;;;;10420494;28;19928;-66
2022/07/12 03:24:41;;;;;;;;;;;;;;;;;;10383966;28;19934;-66
2022/07/12 03:29:43;;;;;;;;;;;;;;;;;;10379800;28;19926;-66
2022/07/12 03:34:45;;;;;;;;;;;;;;;;;;10379594;28;19926;-66
2022/07/12 03:39:48;;;;;;;;;;;;;;;;;;10378941;28;20384;-66
2022/07/12 03:44:50;;;;;;;;;;;;;;;;;;10378291;28;20304;-66
2022/07/12 03:49:52;;;;;;;;;;;;;;;;;;10406796;28;19932;-66
2022/07/12 03:54:54;;;;;;;;;;;;;;;;;;10419097;28;20280;-66
2022/07/12 03:59:56;;;;;;;;;;;;;;;;;;10419523;28;19932;-66
2022/07/12 04:04:58;;;;;;;;;;;;;;;;;;10418366;28;19932;-66
2022/07/12 04:10:00;;;;;;;;;;;;;;;;;;10418813;28;19925;-66
2022/07/12 04:15:02;;;;;;;;;;;;;;;;;;10413800;28;20320;-65
2022/07/12 04:20:04;;;;;;;;;;;;;;;;;;10377795;28;19925;-66
2022/07/12 04:25:06;;;;;;;;;;;;;;;;;;10359415;28;19932;-66
2022/07/12 04:30:09;;;;;;;;;;;;;;;;;;10359996;28;19926;-66
2022/07/12 04:35:11;;;;;;;;;;;;;;;;;;10377238;28;19933;-66
2022/07/12 04:40:13;;;;;;;;;;;;;;;;;;10376440;28;20365;-68
2022/07/12 04:45:15;;;;;;;;;;;;;;;;;;10413057;28;19925;-68
2022/07/12 04:50:17;;;;;;;;;;;;;;;;;;10417237;28;19933;-68
2022/07/12 04:55:19;;;;;;;;;;;;;;;;;;10417404;28;19933;-67
2022/07/12 05:00:21;;;;;;;;;;;;;;;;;;10416600;28;20296;-66
2022/07/12 05:05:23;;;;;;;;;;;;;;;;;;10375867;28;20280;-67
2022/07/12 05:10:25;;;;;;;;;;;;;;;;;;10389661;28;19925;-66
2022/07/12 05:15:27;;;;;;;;;;;;;;;;;;10416144;28;20373;-66
2022/07/12 05:20:29;;;;;;;;;;;;;;;;;;10381724;28;19925;-66
2022/07/12 05:25:31;;;;;;;;;;;;;;;;;;10374994;28;20393;-66
2022/07/12 05:30:33;;;;;;;;;;;;;;;;;;10375456;28;19925;-67
2022/07/12 05:35:36;;;;;;;;;;;;;;;;;;10374572;28;20296;-67
2022/07/12 05:40:38;;;;;;;;;;;;;;;;;;10405958;28;20315;-66
2022/07/12 05:45:40;;;;;;;;;;;;;;;;;;10414809;28;19926;-66
2022/07/12 05:50:42;;;;;;;;;;;;;;;;;;10397772;28;19929;-66
2022/07/12 05:55:44;;;;;;;;;;;;;;;;;;10415775;28;19932;-66
2022/07/12 06:00:46;;;;;;;;;;;;;;;;;;10401405;22;20021;-67
2022/07/12 06:05:49;;;;;;;;;;;;;;;;;;10374851;28;19933;-68
2022/07/12 06:10:51;;;;;;;;;;;;;;;;;;10374101;28;20269;-68
2022/07/12 06:15:53;;;;;;;;;;;;;;;;;;10373947;28;20368;-68
2022/07/12 06:20:55;;;;;;;;;;;;;;;;;;10375018;28;20398;-68
2022/07/12 06:25:57;;;;;;;;;;;;;;;;;;10374436;28;19925;-68
2022/07/12 06:30:59;;;;;;;;;;;;;;;;;;10398252;28;20383;-69
2022/07/12 06:36:01;;;;;;;;;;;;;;;;;;10414137;28;19925;-69
2022/07/12 06:41:03;;;;;;;;;;;;;;;;;;10414250;28;20395;-69
2022/07/12 06:46:05;;;;;;;;;;;;;;;;;;10412024;28;19932;-69
2022/07/12 06:51:07;;;;;;;;;;;;;;;;;;10421144;28;19949;-69
2022/07/12 06:56:09;;;;;;;;;;;;;;;;;;10422029;28;19937;-69
2022/07/12 07:01:11;;;;;;;;;;;;;;;;;;10419549;28;19929;-69
2022/07/12 07:06:15;;;;;;;;;;;;;;;;;;10411178;28;20369;-69
2022/07/12 07:11:17;;;;;;;;;;;;;;;;;;10382104;28;19926;-69
2022/07/12 07:16:22;;;;;;;;;;;;;;;;;;10387766;28;19940;-69
2022/07/12 07:21:24;;;;;;;;;;;;;;;;;;10387649;28;19925;-69
2022/07/12 07:26:26;;;;;;;;;;;;;;;;;;10380004;28;19932;-69
2022/07/12 07:31:28;;;;;;;;;;;;;;;;;;10399110;28;19925;-69
2022/07/12 07:36:30;;;;;;;;;;;;;;;;;;10392785;28;19925;-69
2022/07/12 07:41:32;;;;;;;;;;;;;;;;;;10377712;28;19932;-69
2022/07/12 07:46:35;;;;;;;;;;;;;;;;;;10378574;28;20274;-69
2022/07/12 07:51:37;;;;;;;;;;;;;;;;;;10379095;28;19932;-69
2022/07/12 07:56:39;;;;;;;;;;;;;;;;;;10379158;28;19940;-69
2022/07/12 08:01:53;;;;;;;;;;;;;;;;;;10378189;28;19933;-69
2022/07/12 08:06:56;;;;;;;;;;;;;;;;;;10377792;28;19926;-69
2022/07/12 08:11:58;;;;;;;;;;;;;;;;;;10376529;28;19932;-69
2022/07/12 08:17:00;;;;;;;;;;;;;;;;;;10378104;28;19932;-70
2022/07/12 08:22:03;;;;;;;;;;;;;;;;;;10376680;28;19925;-69
2022/07/12 08:27:05;;;;;;;;;;;;;;;;;;10375965;28;20377;-69
2022/07/12 08:32:07;;;;;;;;;;;;;;;;;;10376885;28;19925;-75
2022/07/12 08:37:10;;;;;;;;;;;;;;;;;;10377260;28;19944;-75
2022/07/12 08:42:12;;;;;;;;;;;;;;;;;;10375969;28;19937;-75
2022/07/12 08:47:15;;;;;;;;;;;;;;;;;;10376190;28;20288;-75
2022/07/12 08:52:17;;;;;;;;;;;;;;;;;;10374794;28;19926;-75
2022/07/12 08:57:19;;;;;;;;;;;;;;;;;;10376345;28;19926;-75
2022/07/12 09:02:21;;;;;;;;;;;;;;;;;;10375646;28;19925;-74
2022/07/12 09:07:23;;;;;;;;;;;;;;;;;;10376197;28;19926;-75
2022/07/12 09:12:25;;;;;;;;;;;;;;;;;;10375038;28;19926;-73
2022/07/12 09:17:27;;;;;;;;;;;;;;;;;;10375197;28;20376;-75
2022/07/12 09:22:29;;;;;;;;;;;;;;;;;;10375666;28;19936;-75
2022/07/12 09:27:32;;;;;;;;;;;;;;;;;;10375547;28;19925;-75
2022/07/12 09:37:54;;;;;;;;;;;;;;;;;;10374786;28;19914;-75
2022/07/12 09:42:57;;;;;;;;;;;;;;;;;;10375246;28;20020;-75
2022/07/12 09:47:59;;;;;;;;;;;;;;;;;;10374556;28;20314;-75
2022/07/12 09:53:01;;;;;;;;;;;;;;;;;;10374439;28;19925;-74
2022/07/12 09:58:04;;;;;;;;;;;;;;;;;;10374638;28;19932;-75
2022/07/12 10:03:06;;;;;;;;;;;;;;;;;;10374657;28;19926;-75
2022/07/12 10:08:09;;;;;;;;;;;;;;;;;;10374831;28;20008;-64
2022/07/12 10:13:11;;;;;;;;;;;;;;;;;;10374145;28;19933;-64
2022/07/12 10:18:13;;;;;;;;;;;;;;;;;;10373986;28;19926;-64
2022/07/12 10:23:15;;;;;;;;;;;;;;;;;;10376624;28;19926;-64
2022/07/12 10:28:17;;;;;;;;;;;;;;;;;;10382261;28;19925;-64
2022/07/12 10:33:19;;;;;;;;;;;;;;;;;;10382125;28;19929;-67
2022/07/12 10:38:22;;;;;;;;;;;;;;;;;;10381922;28;19926;-68
2022/07/12 10:44:04;;;;;;;;;;;;;;;;;;10380510;28;19925;-67
2022/07/12 10:48:46;;;;;;;;;;;;;;;;;;10380785;28;20281;-68
2022/07/12 10:53:50;;;;;;;;;;;;;;;;;;10381343;28;19926;-68
2022/07/12 10:58:53;;;;;;;;;;;;;;;;;;10380798;28;19933;-67
2022/07/12 11:03:56;;;;;;;;;;;;;;;;;;10380270;28;20361;-68
2022/07/12 11:08:59;;;;;;;;;;;;;;;;;;10380672;28;20012;-67
2022/07/12 11:14:01;;;;;;;;;;;;;;;;;;10384283;28;19952;-68
2022/07/12 11:19:03;;;;;;;;;;;;;;;;;;10403920;28;20273;-68
2022/07/12 11:24:12;;;;;;;;;;;;;;;;;;10420467;28;19929;-68
2022/07/12 11:29:14;;;;;;;;;;;;;;;;;;10420261;28;20360;-68
2022/07/12 11:34:16;;;;;;;;;;;;;;;;;;10417777;28;19932;-68
2022/07/12 11:39:18;;;;;;;;;;;;;;;;;;10421160;28;19925;-69
2022/07/12 11:44:20;;;;;;;;;;;;;;;;;;10419294;28;19933;-68
2022/07/12 11:49:22;;;;;;;;;;;;;;;;;;10408531;28;19948;-69
2022/07/12 11:54:25;;;;;;;;;;;;;;;;;;10378857;28;20292;-69
2022/07/12 11:59:27;;;;;;;;;;;;;;;;;;10378064;28;19925;-69
2022/07/12 12:04:29;;;;;;;;;;;;;;;;;;10379633;28;19933;-69
2022/07/12 12:09:31;;;;;;;;;;;;;;;;;;10380909;28;19971;-69
2022/07/12 12:14:33;;;;;;;;;;;;;;;;;;10378239;28;19926;-69
2022/07/12 12:19:35;;;;;;;;;;;;;;;;;;10378051;28;19925;-69
2022/07/12 12:24:37;;;;;;;;;;;;;;;;;;10400167;28;19996;-69
2022/07/12 12:29:39;;;;;;;;;;;;;;;;;;10417401;28;19936;-69
2022/07/12 12:34:41;;;;;;;;;;;;;;;;;;10416382;28;19925;-69
2022/07/12 12:39:44;;;;;;;;;;;;;;;;;;10418127;28;19931;-69
2022/07/12 12:44:46;;;;;;;;;;;;;;;;;;10388687;28;19932;-69
2022/07/12 12:49:49;;;;;;;;;;;;;;;;;;10377426;28;19932;-70
2022/07/12 12:54:58;;;;;;;;;;;;;;;;;;10377892;28;19980;-69
2022/07/12 13:00:00;;;;;;;;;;;;;;;;;;10375005;28;19936;-69
2022/07/12 13:05:02;;;;;;;;;;;;;;;;;;10377422;28;20027;-70
2022/07/12 13:10:04;;;;;;;;;;;;;;;;;;10382645;28;19925;-69
2022/07/12 13:15:07;;;;;;;;;;;;;;;;;;10416882;28;19932;-69
2022/07/12 13:20:09;;;;;;;;;;;;;;;;;;10416776;28;19968;-70
2022/07/12 13:25:11;;;;;;;;;;;;;;;;;;10416266;28;19936;-69
2022/07/12 13:30:13;;;;;;;;;;;;;;;;;;10410087;28;19932;-70
2022/07/12 13:35:17;;;;;;;;;;;;;;;;;;10380002;28;20295;-70
2022/07/12 13:40:22;;;;;;;;;;;;;;;;;;10373750;28;19933;-69
2022/07/12 13:45:24;;;;;;;;;;;;;;;;;;10373832;28;20395;-70
2022/07/12 13:50:26;;;;;;;;;;;;;;;;;;10386524;28;19925;-70
2022/07/12 13:55:33;;;;;;;;;;;;;;;;;;10415017;28;20449;-70
2022/07/12 14:00:35;;;;;;;;;;;;;;;;;;10423512;28;19925;-69
2022/07/12 14:05:37;;;;;;;;;;;;;;;;;;10408747;28;19925;-69
2022/07/12 14:10:39;;;;;;;;;;;;;;;;;;10382393;28;19932;-69
2022/07/12 14:15:42;;;;;;;;;;;;;;;;;;10381731;28;19932;-69
2022/07/12 14:20:44;;;;;;;;;;;;;;;;;;10382677;28;20396;-69
2022/07/12 14:25:46;;;;;;;;;;;;;;;;;;10383450;28;19933;-69
2022/07/12 14:30:48;;;;;;;;;;;;;;;;;;10395297;28;19932;-69
2022/07/12 14:35:51;;;;;;;;;;;;;;;;;;10411358;28;19936;-69
2022/07/12 14:40:53;;;;;;;;;;;;;;;;;;10381231;28;19930;-69
2022/07/12 14:45:55;;;;;;;;;;;;;;;;;;10380934;28;20020;-69
2022/07/12 14:50:57;;;;;;;;;;;;;;;;;;10380848;28;20283;-69
2022/07/12 14:55:59;;;;;;;;;;;;;;;;;;10380643;28;19929;-69
2022/07/12 15:01:02;;;;;;;;;;;;;;;;;;10380196;28;19932;-69
2022/07/12 15:06:04;;;;;;;;;;;;;;;;;;10380851;28;19933;-69
2022/07/12 15:11:06;;;;;;;;;;;;;;;;;;10379037;28;19932;-68
2022/07/12 15:16:08;;;;;;;;;;;;;;;;;;10380484;28;19933;-68
2022/07/12 15:21:10;;;;;;;;;;;;;;;;;;10380170;28;19929;-68
2022/07/12 15:26:13;;;;;;;;;;;;;;;;;;10380033;28;19926;-68
2022/07/12 15:31:15;;;;;;;;;;;;;;;;;;10378120;28;20312;-68
2022/07/12 15:36:17;;;;;;;;;;;;;;;;;;10378625;28;19932;-69
2022/07/12 15:41:19;;;;;;;;;;;;;;;;;;10378923;28;19933;-69
2022/07/12 15:46:21;;;;;;;;;;;;;;;;;;10379256;28;19933;-68
2022/07/12 15:56:47;;;;;;;;;;;;;;;;;;10378371;28;19926;-69
2022/07/12 16:01:55;;;;;;;;;;;;;;;;;;10377914;28;20396;-69
2022/07/12 16:06:57;;;;;;;;;;;;;;;;;;10377906;28;20265;-69
2022/07/12 16:11:59;;;;;;;;;;;;;;;;;;10378375;28;19925;-69
2022/07/12 16:17:01;;;;;;;;;;;;;;;;;;10377521;28;19926;-69
2022/07/12 16:22:03;;;;;;;;;;;;;;;;;;10376904;28;19933;-67
2022/07/12 16:27:05;;;;;;;;;;;;;;;;;;10375908;28;19948;-69
2022/07/12 16:32:08;;;;;;;;;;;;;;;;;;10376912;28;19932;-68
2022/07/12 16:37:14;;;;;;;;;;;;;;;;;;10376751;28;19925;-68
2022/07/12 16:42:16;;;;;;;;;;;;;;;;;;10377254;28;19925;-68
2022/07/12 16:47:19;;;;;;;;;;;;;;;;;;10375779;28;19925;-69
2022/07/12 16:52:21;;;;;;;;;;;;;;;;;;10376161;28;20292;-68
2022/07/12 16:57:24;;;;;;;;;;;;;;;;;;10376643;28;19932;-68
2022/07/12 17:02:26;;;;;;;;;;;;;;;;;;10375670;28;19925;-68
2022/07/12 17:07:28;;;;;;;;;;;;;;;;;;10376310;28;19930;-68
2022/07/12 17:12:31;;;;;;;;;;;;;;;;;;10376118;28;19930;-68
2022/07/12 17:17:38;;;;;;;;;;;;;;;;;;10376052;28;19972;-68
2022/07/12 17:22:41;;;;;;;;;;;;;;;;;;10375803;28;19929;-68
2022/07/12 17:27:43;;;;;;;;;;;;;;;;;;10373830;28;20447;-68
2022/07/12 17:32:45;;;;;;;;;;;;;;;;;;10374634;28;19926;-68
2022/07/12 17:37:48;;;;;;;;;;;;;;;;;;10374881;28;19925;-68
2022/07/12 17:42:50;;;;;;;;;;;;;;;;;;10375266;28;19926;-68
2022/07/12 17:47:54;;;;;;;;;;;;;;;;;;10374635;28;20411;-68
2022/07/12 17:52:57;;;;;;;;;;;;;;;;;;10374501;28;20384;-68
2022/07/12 18:03:19;;;;;;;;;;;;;;;;;;10374899;28;19925;-68
2022/07/12 18:08:22;;;;;;;;;;;;;;;;;;10374179;28;19975;-68
2022/07/12 18:18:45;;;;;;;;;;;;;;;;;;10374100;28;19925;-68
2022/07/12 18:23:47;;;;;;;;;;;;;;;;;;10374573;28;19926;-68
2022/07/12 18:28:49;;;;;;;;;;;;;;;;;;10374522;28;19926;-68
2022/07/12 18:33:51;;;;;;;;;;;;;;;;;;10374112;28;20284;-68
2022/07/12 18:38:54;;;;;;;;;;;;;;;;;;10373701;28;20388;-68
2022/07/12 18:43:56;;;;;;;;;;;;;;;;;;10375756;28;19925;-68
2022/07/12 18:48:58;;;;;;;;;;;;;;;;;;10381081;28;19925;-68
2022/07/12 18:54:00;;;;;;;;;;;;;;;;;;10380813;28;19929;-68
2022/07/12 18:59:02;;;;;;;;;;;;;;;;;;10381322;28;19933;-68
2022/07/12 19:04:04;;;;;;;;;;;;;;;;;;10381032;28;20020;-68
2022/07/12 19:09:06;;;;;;;;;;;;;;;;;;10380939;28;19925;-68
2022/07/12 19:14:08;;;;;;;;;;;;;;;;;;10380332;28;19933;-68
2022/07/12 19:19:10;;;;;;;;;;;;;;;;;;10379924;28;19952;-68
2022/07/12 19:24:12;;;;;;;;;;;;;;;;;;10379533;28;20364;-68
2022/07/12 19:29:15;;;;;;;;;;;;;;;;;;10380039;28;19932;-68
2022/07/12 19:34:17;;;;;;;;;;;;;;;;;;10379304;28;19932;-68
2022/07/12 19:39:19;;;;;;;;;;;;;;;;;;10379749;28;19925;-68
2022/07/12 19:44:22;;;;;;;;;;;;;;;;;;10378274;28;19932;-68
2022/07/12 19:49:24;;;;;;;;;;;;;;;;;;10378715;28;20392;-68
2022/07/12 19:54:26;;;;;;;;;;;;;;;;;;10378238;28;19932;-68
2022/07/12 19:59:29;;;;;;;;;;;;;;;;;;10378329;28;19925;-68
2022/07/12 20:04:31;;;;;;;;;;;;;;;;;;10378022;28;19945;-68
2022/07/12 20:09:37;;;;;;;;;;;;;;;;;;10378688;28;19964;-68
2022/07/12 20:14:39;;;;;;;;;;;;;;;;;;10377601;28;20368;-68
2022/07/12 20:19:41;;;;;;;;;;;;;;;;;;10377570;28;19925;-68
2022/07/12 20:24:43;;;;;;;;;;;;;;;;;;10377920;28;19932;-68
2022/07/12 20:29:46;;;;;;;;;;;;;;;;;;10377007;28;20284;-68
2022/07/12 20:34:48;;;;;;;;;;;;;;;;;;10376902;28;19948;-68
2022/07/12 20:39:50;;;;;;;;;;;;;;;;;;10376788;28;20373;-68
2022/07/12 20:44:52;;;;;;;;;;;;;;;;;;10377061;28;19925;-68
2022/07/12 20:49:54;;;;;;;;;;;;;;;;;;10375533;28;19926;-68
2022/07/12 20:54:56;;;;;;;;;;;;;;;;;;10375975;28;19925;-67
2022/07/12 20:59:58;;;;;;;;;;;;;;;;;;10376505;28;19932;-68
2022/07/12 21:05:00;;;;;;;;;;;;;;;;;;10375780;28;19945;-68
2022/07/12 21:10:02;;;;;;;;;;;;;;;;;;10374691;28;20292;-67
2022/07/12 21:15:04;;;;;;;;;;;;;;;;;;10375106;28;19932;-67
2022/07/12 21:20:06;;;;;;;;;;;;;;;;;;10375302;28;19925;-67
2022/07/12 21:25:09;;;;;;;;;;;;;;;;;;10375095;28;20369;-67
2022/07/12 21:30:11;;;;;;;;;;;;;;;;;;10375051;28;20306;-67
2022/07/12 21:35:13;;;;;;;;;;;;;;;;;;10374826;28;20292;-67
2022/07/12 21:40:15;;;;;;;;;;;;;;;;;;10375096;28;19925;-67
2022/07/12 21:45:18;;;;;;;;;;;;;;;;;;10375256;28;19925;-67
2022/07/12 21:50:20;;;;;;;;;;;;;;;;;;10374563;28;19948;-67
2022/07/12 21:55:22;;;;;;;;;;;;;;;;;;10374973;28;19925;-67
2022/07/12 22:00:24;;;;;;;;;;;;;;;;;;10374471;28;20344;-68
2022/07/12 22:05:26;;;;;;;;;;;;;;;;;;10372880;28;20411;-67
2022/07/12 22:10:28;;;;;;;;;;;;;;;;;;10374769;28;19925;-67
2022/07/12 22:15:30;;;;;;;;;;;;;;;;;;10374241;28;19936;-67
2022/07/12 22:20:32;;;;;;;;;;;;;;;;;;10380169;28;19933;-67
2022/07/12 22:25:34;;;;;;;;;;;;;;;;;;10382363;28;19933;-67
2022/07/12 22:30:36;;;;;;;;;;;;;;;;;;10382459;28;19925;-67
2022/07/12 22:35:38;;;;;;;;;;;;;;;;;;10381347;28;19925;-67
2022/07/12 22:40:40;;;;;;;;;;;;;;;;;;10381410;28;19933;-67
2022/07/12 22:45:43;;;;;;;;;;;;;;;;;;10381099;28;20388;-67
2022/07/12 22:56:05;;;;;;;;;;;;;;;;;;10381462;28;19926;-67
2022/07/12 23:01:07;;;;;;;;;;;;;;;;;;10381096;28;19925;-67
2022/07/12 23:06:10;;;;;;;;;;;;;;;;;;10380179;28;20392;-67
2022/07/12 23:11:12;;;;;;;;;;;;;;;;;;10380191;28;20388;-67
2022/07/12 23:16:14;;;;;;;;;;;;;;;;;;10379623;28;20297;-67
2022/07/12 23:21:16;;;;;;;;;;;;;;;;;;10380420;28;20020;-67
2022/07/12 23:26:18;;;;;;;;;;;;;;;;;;10380151;28;19932;-68
2022/07/12 23:31:20;;;;;;;;;;;;;;;;;;10379291;28;19936;-66
2022/07/12 23:36:23;;;;;;;;;;;;;;;;;;10378411;28;19930;-66
2022/07/12 23:41:25;;;;;;;;;;;;;;;;;;10379702;28;19932;-66
2022/07/12 23:46:27;;;;;;;;;;;;;;;;;;10379203;28;19925;-66
2022/07/12 23:51:29;;;;;;;;;;;;;;;;;;10379350;28;19971;-65
2022/07/12 23:56:31;;;;;;;;;;;;;;;;;;10378602;28;19933;-66
